Terminal Aerodrome Forecast
Issued by NWS

Home | Current Version | Previous Version | Text Only | Print | Product List | Glossary Off
Versions: 1 2 3 4 5 6 7 8 9 10 11 12 13 14 15

437
FTUS43 KMPX 221120
TAFAXN
TAF
KAXN 221120Z 2212/2312 14009KT P6SM BKN040
     FM222100 17017G26KT P6SM SCT120
     FM230200 19012KT P6SM SCT200 WS020/19040KT
     FM230600 23008KT P6SM BKN100 PROB30 2306/2310 -TSRA BKN040CB
     FM231000 30010KT P6SM VCSH BKN050=

USA.gov is the U.S. government's official web portal to all federal, state and local government web resources and services.